Time;durP1;ratioP1;P1;durP2;ratioP2;P2;SDS_P1;SDS_P2;PMS_P1;PMS_P2;Temp;Humidity;BMP_temperature;BMP_pressure;BME280_temperature;BME280_humidity;BME280_pressure;Samples;Min_cycle;Max_cycle;Signal;HPM_P1;HPM_P2
2024/02/15 00:00:28;;;;;;;2.50;2.30;;;11.50;99.90;;;;;;4992550;28;20533;-68
2024/02/15 00:02:53;;;;;;;3.10;1.90;;;11.50;99.90;;;;;;4992111;28;20529;-69
2024/02/15 00:05:19;;;;;;;2.80;1.97;;;11.40;99.90;;;;;;4991752;28;20238;-68
2024/02/15 00:07:48;;;;;;;2.67;1.87;;;11.40;99.90;;;;;;4984483;28;20610;-68
2024/02/15 00:10:14;;;;;;;2.43;1.80;;;11.40;99.90;;;;;;4986594;28;20172;-68
2024/02/15 00:12:39;;;;;;;3.37;2.10;;;11.40;99.90;;;;;;4982158;28;20477;-68
2024/02/15 00:15:05;;;;;;;3.70;1.90;;;11.40;99.90;;;;;;4990537;28;20430;-70
2024/02/15 00:17:32;;;;;;;5.90;2.57;;;11.40;99.90;;;;;;4991338;28;20207;-68
2024/02/15 00:19:57;;;;;;;5.30;2.20;;;11.40;99.90;;;;;;4983895;28;20430;-68
2024/02/15 00:22:23;;;;;;;2.00;1.90;;;11.40;99.90;;;;;;4989589;28;20944;-68
2024/02/15 00:24:48;;;;;;;1.80;1.70;;;11.40;99.90;;;;;;4987835;28;20211;-68
2024/02/15 00:27:15;;;;;;;2.33;2.00;;;11.40;99.90;;;;;;4980588;28;20326;-68
2024/02/15 00:29:41;;;;;;;5.93;1.90;;;11.40;99.90;;;;;;4978500;28;20657;-68
2024/02/15 00:32:07;;;;;;;4.03;1.77;;;11.40;99.90;;;;;;4989374;28;20423;-69
2024/02/15 00:34:33;;;;;;;3.47;2.30;;;11.40;99.90;;;;;;4992374;28;20176;-70
2024/02/15 00:36:59;;;;;;;3.13;1.97;;;11.40;99.90;;;;;;4990459;28;20245;-68
2024/02/15 00:39:24;;;;;;;1.67;1.57;;;11.30;99.90;;;;;;4979647;28;20443;-68
2024/02/15 00:41:50;;;;;;;2.20;2.00;;;11.30;99.90;;;;;;4979811;28;20183;-68
2024/02/15 00:44:17;;;;;;;1.93;1.50;;;11.30;99.90;;;;;;4983521;28;20570;-68
2024/02/15 00:46:43;;;;;;;2.00;1.83;;;11.30;99.90;;;;;;4991825;28;20192;-68
2024/02/15 00:49:08;;;;;;;3.77;2.00;;;11.30;99.90;;;;;;4992472;28;20419;-68
2024/02/15 00:51:35;;;;;;;2.63;1.93;;;11.30;99.90;;;;;;4991488;28;20548;-68
2024/02/15 00:54:02;;;;;;;2.73;2.33;;;11.30;99.90;;;;;;4981799;28;20184;-68
2024/02/15 00:56:29;;;;;;;1.73;1.63;;;11.30;99.90;;;;;;4979431;28;20447;-68
2024/02/15 00:58:55;;;;;;;3.07;1.77;;;11.20;99.90;;;;;;4972748;28;20788;-70
2024/02/15 01:01:21;;;;;;;2.00;1.83;;;11.20;99.90;;;;;;4983235;28;20434;-70
2024/02/15 01:03:47;;;;;;;2.53;1.80;;;11.10;99.90;;;;;;4994340;28;20197;-70
2024/02/15 01:06:13;;;;;;;2.13;1.97;;;11.10;99.90;;;;;;4992357;28;20454;-70
2024/02/15 01:08:38;;;;;;;1.70;1.60;;;11.00;99.90;;;;;;4985488;28;20484;-70
2024/02/15 01:11:04;;;;;;;3.20;2.13;;;11.00;99.90;;;;;;4984819;28;20183;-70
2024/02/15 01:13:30;;;;;;;3.20;2.43;;;11.00;99.90;;;;;;4987481;28;20179;-69
2024/02/15 01:15:55;;;;;;;2.70;1.97;;;11.00;99.90;;;;;;4995184;28;20286;-69
2024/02/15 01:18:21;;;;;;;2.23;1.73;;;11.10;99.90;;;;;;4994253;28;20229;-70
2024/02/15 01:20:46;;;;;;;3.83;2.00;;;11.10;99.90;;;;;;4994506;28;20219;-70
2024/02/15 01:23:12;;;;;;;1.80;1.70;;;11.10;99.90;;;;;;4983831;28;20188;-69
2024/02/15 01:25:39;;;;;;;3.17;2.13;;;11.10;99.90;;;;;;4986281;28;20676;-69
2024/02/15 01:28:05;;;;;;;2.73;2.40;;;11.10;99.90;;;;;;4987108;28;20246;-69
2024/02/15 01:30:31;;;;;;;1.90;1.77;;;11.10;99.90;;;;;;4994641;28;20473;-69
2024/02/15 01:32:57;;;;;;;4.80;2.00;;;11.10;99.90;;;;;;4995209;28;20183;-69
2024/02/15 01:35:23;;;;;;;4.13;2.40;;;11.10;99.90;;;;;;4994282;28;20989;-69
2024/02/15 01:37:48;;;;;;;2.30;1.90;;;11.10;99.90;;;;;;4983226;28;20565;-69
2024/02/15 01:40:15;;;;;;;2.33;2.13;;;11.10;99.90;;;;;;4993692;28;20180;-69
2024/02/15 01:42:41;;;;;;;2.77;2.07;;;11.10;99.90;;;;;;4980728;28;20243;-69
2024/02/15 01:45:07;;;;;;;2.80;2.10;;;11.00;99.90;;;;;;4975881;28;20451;-69
2024/02/15 01:47:33;;;;;;;3.63;2.80;;;10.90;99.90;;;;;;4993783;28;20199;-69
2024/02/15 01:49:59;;;;;;;2.00;1.73;;;10.90;99.90;;;;;;4989430;28;20948;-69
2024/02/15 01:52:24;;;;;;;2.23;2.03;;;10.80;99.90;;;;;;4983996;28;20661;-69
2024/02/15 01:54:52;;;;;;;2.00;1.80;;;10.70;99.90;;;;;;4985476;28;20442;-70
2024/02/15 01:57:19;;;;;;;2.20;1.80;;;10.70;99.90;;;;;;4985685;28;20238;-69
2024/02/15 01:59:44;;;;;;;3.53;2.00;;;10.60;99.90;;;;;;4994306;28;20437;-69
2024/02/15 02:02:14;;;;;;;2.60;1.87;;;10.50;99.90;;;;;;4985816;28;20447;-69
2024/02/15 02:04:41;;;;;;;2.20;1.90;;;10.50;99.90;;;;;;4987940;28;20275;-69
2024/02/15 02:07:07;;;;;;;2.50;1.70;;;10.40;99.90;;;;;;4990484;28;20450;-69
2024/02/15 02:09:33;;;;;;;3.57;1.80;;;10.40;99.90;;;;;;4993609;28;20439;-69
2024/02/15 02:11:58;;;;;;;2.77;1.80;;;10.30;99.90;;;;;;4986085;28;20427;-69
2024/02/15 02:14:25;;;;;;;2.80;1.67;;;10.30;99.90;;;;;;4978851;28;20187;-69
2024/02/15 02:16:51;;;;;;;2.37;1.87;;;10.30;99.90;;;;;;4992068;28;20672;-69
2024/02/15 02:19:17;;;;;;;2.17;1.97;;;10.20;99.90;;;;;;4990487;28;20999;-69
2024/02/15 02:21:44;;;;;;;2.13;1.83;;;10.10;99.90;;;;;;4991647;28;20439;-69
2024/02/15 02:24:14;;;;;;;5.77;2.03;;;10.10;99.90;;;;;;4985105;28;20473;-70
2024/02/15 02:26:40;;;;;;;3.47;2.10;;;10.00;99.90;;;;;;4987900;28;20443;-69
2024/02/15 02:29:07;;;;;;;2.80;2.03;;;9.90;99.90;;;;;;4990818;28;20430;-69
2024/02/15 02:31:34;;;;;;;2.73;2.03;;;9.90;99.90;;;;;;4991737;28;20489;-69
2024/02/15 02:34:00;;;;;;;2.57;1.57;;;9.90;99.90;;;;;;4992844;28;20860;-69
2024/02/15 02:36:26;;;;;;;6.10;2.23;;;9.80;99.90;;;;;;4974591;28;20477;-69
2024/02/15 02:38:52;;;;;;;2.97;2.07;;;9.80;99.90;;;;;;4978849;28;20510;-69
2024/02/15 02:41:19;;;;;;;5.20;2.20;;;9.70;99.90;;;;;;4981002;28;20522;-69
2024/02/15 02:43:45;;;;;;;2.33;2.13;;;9.70;99.90;;;;;;4987214;28;20467;-69
2024/02/15 02:46:11;;;;;;;3.53;2.03;;;9.70;99.90;;;;;;4990758;28;20902;-69
2024/02/15 02:48:38;;;;;;;2.50;2.30;;;9.60;99.90;;;;;;4985350;28;20509;-69
2024/02/15 02:51:04;;;;;;;2.40;1.90;;;9.60;99.90;;;;;;4984186;28;20866;-69
2024/02/15 02:53:29;;;;;;;4.50;3.30;;;9.60;99.90;;;;;;4993707;28;20454;-70
2024/02/15 02:55:56;;;;;;;4.73;2.70;;;9.60;99.90;;;;;;4992526;28;20455;-70
2024/02/15 02:58:23;;;;;;;5.83;2.20;;;9.60;99.90;;;;;;4991958;28;20725;-69
2024/02/15 03:00:52;;;;;;;3.13;1.90;;;9.50;99.90;;;;;;4993045;28;20423;-69
2024/02/15 03:03:22;;;;;;;4.13;2.10;;;9.50;99.90;;;;;;4987818;28;20467;-69
2024/02/15 03:05:48;;;;;;;4.27;2.00;;;9.50;99.90;;;;;;4975022;28;20875;-68
2024/02/15 03:08:14;;;;;;;2.23;1.97;;;9.50;99.90;;;;;;4974210;28;20427;-69
2024/02/15 03:10:40;;;;;;;3.10;2.10;;;9.40;99.90;;;;;;4990134;28;20186;-69
2024/02/15 03:13:07;;;;;;;2.33;2.13;;;9.40;99.90;;;;;;4990912;28;20585;-68
2024/02/15 03:15:34;;;;;;;2.10;2.00;;;9.30;99.90;;;;;;4984836;28;20438;-69
2024/02/15 03:17:59;;;;;;;11.33;2.50;;;9.30;99.90;;;;;;4991828;28;20466;-69
2024/02/15 03:20:25;;;;;;;2.40;1.73;;;9.20;99.90;;;;;;4980066;28;21015;-69
2024/02/15 03:22:55;;;;;;;2.07;1.97;;;9.20;99.90;;;;;;4973889;28;20172;-69
2024/02/15 03:25:23;;;;;;;1.80;1.60;;;9.10;99.90;;;;;;4981844;28;20204;-69
2024/02/15 03:27:51;;;;;;;3.90;2.20;;;9.10;99.90;;;;;;4990227;28;20999;-69
2024/02/15 03:30:17;;;;;;;3.00;2.20;;;9.10;99.90;;;;;;4983861;28;20420;-69
2024/02/15 03:32:43;;;;;;;3.97;2.50;;;9.10;99.90;;;;;;4992254;28;20469;-69
2024/02/15 03:35:08;;;;;;;4.53;2.90;;;9.00;99.90;;;;;;4981195;28;20428;-69
2024/02/15 03:37:36;;;;;;;3.47;2.30;;;9.00;99.90;;;;;;4992577;28;20639;-69
2024/02/15 03:40:03;;;;;;;2.97;2.67;;;9.00;99.90;;;;;;4990715;28;20176;-69
2024/02/15 03:42:30;;;;;;;3.03;1.90;;;8.90;99.90;;;;;;4986469;28;20441;-69
2024/02/15 03:44:55;;;;;;;3.60;2.83;;;8.90;99.90;;;;;;4989324;28;20477;-69
2024/02/15 03:47:21;;;;;;;3.03;2.80;;;8.90;99.90;;;;;;4986203;28;20454;-69
2024/02/15 03:49:47;;;;;;;2.40;2.13;;;8.90;99.90;;;;;;4977789;28;20552;-69
2024/02/15 03:52:12;;;;;;;2.70;2.50;;;8.90;99.90;;;;;;4990620;28;20183;-69
2024/02/15 03:54:38;;;;;;;3.53;2.23;;;8.80;99.90;;;;;;4985236;28;20893;-69
2024/02/15 03:57:06;;;;;;;5.37;2.10;;;8.80;99.90;;;;;;4973534;28;20196;-69
2024/02/15 03:59:32;;;;;;;4.17;2.70;;;8.80;99.90;;;;;;4988149;28;20346;-69
2024/02/15 04:01:58;;;;;;;2.37;2.17;;;8.90;99.90;;;;;;4965137;28;20439;-69
2024/02/15 04:04:23;;;;;;;8.63;2.53;;;8.90;99.90;;;;;;4987193;28;20468;-69
2024/02/15 04:06:49;;;;;;;3.23;2.03;;;8.90;99.90;;;;;;4988256;28;20191;-69
2024/02/15 04:09:15;;;;;;;4.33;1.93;;;9.00;99.90;;;;;;4992389;28;20580;-69
2024/02/15 04:11:41;;;;;;;4.17;2.07;;;9.10;99.90;;;;;;4991971;28;20509;-69
2024/02/15 04:14:06;;;;;;;3.77;2.20;;;9.10;99.90;;;;;;4983647;28;20214;-69
2024/02/15 04:16:33;;;;;;;2.77;1.90;;;9.20;99.90;;;;;;4987742;28;20200;-69
2024/02/15 04:18:59;;;;;;;3.30;2.33;;;9.20;99.90;;;;;;4990673;28;20713;-69
2024/02/15 04:21:24;;;;;;;2.60;2.40;;;9.30;99.90;;;;;;4992517;28;20458;-68
2024/02/15 04:23:51;;;;;;;3.47;3.17;;;9.30;99.90;;;;;;4992382;28;20622;-69
2024/02/15 04:26:19;;;;;;;2.03;1.83;;;9.40;99.90;;;;;;4991442;28;20202;-69
2024/02/15 04:28:48;;;;;;;5.83;2.43;;;9.50;99.90;;;;;;4970869;28;20427;-69
2024/02/15 04:31:13;;;;;;;2.20;2.00;;;9.50;99.90;;;;;;4987590;28;20489;-68
2024/02/15 04:33:39;;;;;;;4.37;2.23;;;9.60;99.90;;;;;;4984555;28;20420;-69
2024/02/15 04:36:06;;;;;;;5.63;3.40;;;9.60;99.90;;;;;;4977379;28;20203;-69
2024/02/15 04:38:34;;;;;;;2.03;1.93;;;9.70;99.90;;;;;;4982727;28;20741;-68
2024/02/15 04:41:05;;;;;;;3.50;2.40;;;9.70;99.90;;;;;;4981246;28;20774;-69
2024/02/15 04:43:32;;;;;;;4.37;2.23;;;9.80;99.90;;;;;;4995424;28;20517;-68
2024/02/15 04:45:58;;;;;;;3.90;2.27;;;9.80;99.90;;;;;;4984306;28;21053;-69
2024/02/15 04:48:24;;;;;;;2.50;1.80;;;9.80;99.90;;;;;;4976431;28;21163;-69
2024/02/15 04:50:51;;;;;;;3.60;1.77;;;9.80;99.90;;;;;;4985331;28;20769;-69
2024/02/15 04:53:16;;;;;;;2.87;2.00;;;9.90;99.90;;;;;;4990764;28;20498;-69
2024/02/15 04:55:42;;;;;;;7.17;2.20;;;9.90;99.90;;;;;;4990746;28;20470;-68
2024/02/15 04:58:10;;;;;;;2.73;1.90;;;9.90;99.90;;;;;;4987714;28;20195;-68
2024/02/15 05:00:36;;;;;;;3.03;2.63;;;10.00;99.90;;;;;;4984299;28;20180;-69
2024/02/15 05:03:02;;;;;;;3.20;2.17;;;10.10;99.90;;;;;;4980371;28;20778;-68
2024/02/15 05:05:29;;;;;;;2.67;2.47;;;10.10;99.90;;;;;;4994731;28;20236;-69
2024/02/15 05:07:54;;;;;;;4.17;2.00;;;10.20;99.90;;;;;;4992357;28;20178;-69
2024/02/15 05:10:20;;;;;;;2.70;2.20;;;10.20;99.90;;;;;;4995626;28;20431;-68
2024/02/15 05:12:47;;;;;;;2.27;2.07;;;10.20;99.90;;;;;;4994549;28;20666;-69
2024/02/15 05:15:17;;;;;;;2.90;2.23;;;10.10;99.90;;;;;;4982957;28;20176;-69
2024/02/15 05:17:43;;;;;;;1.90;1.80;;;10.20;99.90;;;;;;4993716;28;20975;-69
2024/02/15 05:20:13;;;;;;;3.37;1.70;;;10.20;99.90;;;;;;4992054;28;20449;-69
2024/02/15 05:22:39;;;;;;;2.23;2.03;;;10.10;99.90;;;;;;4989288;28;20194;-69
2024/02/15 05:25:08;;;;;;;2.30;2.10;;;10.10;99.90;;;;;;4992945;28;20582;-69
2024/02/15 05:27:35;;;;;;;3.90;2.00;;;10.20;99.90;;;;;;4983650;28;20454;-69
2024/02/15 05:30:06;;;;;;;3.43;2.00;;;10.20;99.90;;;;;;4989941;28;20439;-69
2024/02/15 05:32:32;;;;;;;3.23;2.17;;;10.10;99.90;;;;;;4992046;28;20457;-69
2024/02/15 05:34:58;;;;;;;2.30;1.97;;;10.10;99.90;;;;;;4990719;28;20945;-69
2024/02/15 05:37:24;;;;;;;6.37;2.30;;;10.10;99.90;;;;;;4986615;28;20473;-69
2024/02/15 05:39:53;;;;;;;3.47;2.90;;;10.10;99.90;;;;;;4995197;28;20171;-69
2024/02/15 05:42:19;;;;;;;2.50;1.77;;;10.10;99.90;;;;;;4995140;28;20494;-69
2024/02/15 05:44:45;;;;;;;5.00;4.50;;;10.10;99.90;;;;;;4991673;28;20463;-69
2024/02/15 05:47:11;;;;;;;5.00;3.33;;;10.10;99.90;;;;;;4991451;28;20725;-69
2024/02/15 05:49:37;;;;;;;4.53;3.70;;;10.10;99.90;;;;;;4985918;28;20587;-69
2024/02/15 05:52:03;;;;;;;4.33;3.27;;;10.10;99.90;;;;;;4985743;28;20176;-69
2024/02/15 05:54:28;;;;;;;4.13;3.00;;;10.10;99.90;;;;;;4985327;28;20586;-69
2024/02/15 05:56:55;;;;;;;6.23;4.20;;;10.10;99.90;;;;;;4991916;28;20455;-69
2024/02/15 05:59:20;;;;;;;5.70;2.90;;;10.10;99.90;;;;;;4980363;28;20259;-69
2024/02/15 06:01:49;;;;;;;3.40;3.10;;;10.10;99.90;;;;;;4982152;28;20551;-68
2024/02/15 06:04:16;;;;;;;7.10;4.00;;;10.10;99.90;;;;;;4987058;28;20212;-69
2024/02/15 06:06:42;;;;;;;5.03;3.30;;;10.10;99.90;;;;;;4989124;28;20955;-69
2024/02/15 06:09:08;;;;;;;4.07;3.30;;;10.10;99.90;;;;;;4980347;28;20419;-69
2024/02/15 06:11:33;;;;;;;2.40;2.20;;;10.20;99.90;;;;;;4983229;28;20842;-69
2024/02/15 06:13:59;;;;;;;4.03;2.80;;;10.20;99.90;;;;;;4989881;28;20191;-68
2024/02/15 06:16:25;;;;;;;4.70;3.10;;;10.20;99.90;;;;;;4985275;28;20602;-69
2024/02/15 06:18:50;;;;;;;3.40;2.93;;;10.20;99.90;;;;;;4986356;28;20656;-69
2024/02/15 06:21:17;;;;;;;5.20;4.10;;;10.20;99.90;;;;;;4974715;28;20418;-68
2024/02/15 06:23:43;;;;;;;3.43;3.13;;;10.10;99.90;;;;;;4974968;28;20172;-68
2024/02/15 06:26:08;;;;;;;6.43;3.70;;;10.00;99.90;;;;;;4992546;28;20840;-68
2024/02/15 06:39:38;;;;;;;6.43;4.60;;;9.70;99.90;;;;;;4989440;28;20435;-68
2024/02/15 06:42:04;;;;;;;3.30;3.00;;;9.70;99.90;;;;;;4974323;28;20427;-69
2024/02/15 06:44:30;;;;;;;9.70;7.50;;;9.60;99.90;;;;;;4986176;28;20835;-68
2024/02/15 06:46:56;;;;;;;3.27;2.73;;;9.60;99.90;;;;;;4991719;28;20462;-68
2024/02/15 06:49:24;;;;;;;5.40;3.30;;;9.60;99.90;;;;;;4990271;28;20164;-68
2024/02/15 06:51:50;;;;;;;3.20;3.00;;;9.60;99.90;;;;;;4974440;28;20527;-68
2024/02/15 06:54:18;;;;;;;7.37;3.50;;;9.70;99.90;;;;;;4974580;28;20921;-68
2024/02/15 06:56:47;;;;;;;2.97;2.77;;;9.70;99.90;;;;;;4974046;28;20443;-68
2024/02/15 06:59:20;;;;;;;3.27;2.83;;;9.80;99.90;;;;;;4975363;28;20438;-68
2024/02/15 07:01:45;;;;;;;3.40;2.60;;;9.90;99.90;;;;;;4974087;28;20455;-68
2024/02/15 07:04:11;;;;;;;8.10;4.40;;;9.90;99.90;;;;;;4973979;28;20633;-68
2024/02/15 07:06:38;;;;;;;3.80;2.83;;;10.00;99.90;;;;;;4973550;28;20192;-68
2024/02/15 07:09:06;;;;;;;6.67;4.80;;;10.00;99.90;;;;;;4974137;28;20175;-68
2024/02/15 07:11:35;;;;;;;9.30;7.33;;;10.10;99.90;;;;;;4975120;28;20419;-68
2024/02/15 07:14:01;;;;;;;5.80;4.97;;;10.20;99.90;;;;;;4974005;28;20420;-68
2024/02/15 07:16:27;;;;;;;8.10;6.73;;;10.30;99.90;;;;;;4973616;28;20455;-68
2024/02/15 07:18:53;;;;;;;8.60;6.40;;;10.50;99.90;;;;;;4973978;28;21099;-68
2024/02/15 07:21:25;;;;;;;7.60;5.23;;;10.80;99.90;;;;;;4980699;28;20168;-68
2024/02/15 07:23:51;;;;;;;5.70;4.67;;;11.10;99.90;;;;;;4992961;28;20798;-69
2024/02/15 07:26:18;;;;;;;3.67;3.30;;;11.40;99.90;;;;;;4986097;28;20538;-69
2024/02/15 07:28:46;;;;;;;5.20;3.97;;;11.70;99.90;;;;;;4973525;28;20427;-69
2024/02/15 07:31:11;;;;;;;7.10;3.90;;;12.00;99.90;;;;;;4976570;28;20490;-68
2024/02/15 07:33:38;;;;;;;7.60;3.93;;;12.10;99.90;;;;;;4978363;28;20855;-68
2024/02/15 07:36:04;;;;;;;7.13;3.27;;;12.20;99.90;;;;;;4986124;28;20252;-68
2024/02/15 07:38:34;;;;;;;4.67;3.53;;;12.20;99.90;;;;;;4974734;28;20526;-68
2024/02/15 07:41:00;;;;;;;10.60;3.80;;;12.00;99.90;;;;;;4975636;28;20327;-68
2024/02/15 07:43:26;;;;;;;3.90;2.63;;;12.00;99.90;;;;;;4989665;28;20426;-68
2024/02/15 07:45:52;;;;;;;4.43;3.50;;;12.10;99.90;;;;;;4985675;28;20469;-68
2024/02/15 07:48:17;;;;;;;5.23;2.80;;;12.20;99.90;;;;;;4973570;28;20789;-68
2024/02/15 07:50:44;;;;;;;16.27;3.30;;;12.30;99.90;;;;;;4974350;28;20203;-68
2024/02/15 07:53:11;;;;;;;3.70;3.33;;;12.80;99.90;;;;;;4989628;28;20607;-67
2024/02/15 07:55:37;;;;;;;4.77;4.20;;;13.10;99.90;;;;;;4986252;28;20437;-68
2024/02/15 07:58:03;;;;;;;4.40;3.40;;;13.30;99.90;;;;;;4992420;28;20485;-67
2024/02/15 08:00:29;;;;;;;3.03;2.63;;;13.10;99.90;;;;;;4971650;28;20430;-68
2024/02/15 08:02:57;;;;;;;4.40;3.07;;;13.00;99.90;;;;;;4991794;28;20434;-67
2024/02/15 08:05:22;;;;;;;2.80;2.57;;;13.00;99.90;;;;;;4990192;28;20462;-68
2024/02/15 08:07:48;;;;;;;6.53;2.97;;;12.80;99.90;;;;;;4991251;28;20513;-68
2024/02/15 08:10:13;;;;;;;3.43;2.93;;;13.00;99.90;;;;;;4981271;28;20172;-68
2024/02/15 08:12:43;;;;;;;3.93;3.03;;;13.40;99.90;;;;;;4975360;28;20180;-68
2024/02/15 08:15:12;;;;;;;3.27;3.03;;;13.30;99.90;;;;;;4979516;28;20259;-68
2024/02/15 08:17:43;;;;;;;3.90;3.20;;;13.10;99.90;;;;;;4979359;28;20486;-67
2024/02/15 08:20:11;;;;;;;4.90;3.23;;;12.90;99.90;;;;;;4979458;28;20451;-68
2024/02/15 08:22:39;;;;;;;2.50;2.30;;;12.50;99.90;;;;;;4979464;28;20411;-68
2024/02/15 08:25:12;;;;;;;7.77;3.10;;;12.40;99.90;;;;;;4989344;28;20812;-67
2024/02/15 08:27:44;;;;;;;3.90;2.70;;;12.60;99.90;;;;;;4978899;28;20535;-68
2024/02/15 08:30:13;;;;;;;3.53;2.87;;;12.90;99.90;;;;;;4984382;28;20768;-67
2024/02/15 08:32:43;;;;;;;6.70;3.33;;;13.00;99.90;;;;;;4996012;28;20466;-68
2024/02/15 08:35:10;;;;;;;3.60;3.30;;;13.30;99.90;;;;;;4988513;28;20430;-68
2024/02/15 08:37:36;;;;;;;2.83;2.63;;;13.40;99.90;;;;;;4994606;28;20462;-68
2024/02/15 08:40:10;;;;;;;9.23;3.20;;;13.30;99.90;;;;;;4996963;28;20426;-68
2024/02/15 08:42:42;;;;;;;4.10;2.80;;;13.20;99.90;;;;;;4981100;28;20426;-68
2024/02/15 08:45:08;;;;;;;3.90;2.70;;;13.20;99.90;;;;;;4997718;28;20529;-68
2024/02/15 08:47:39;;;;;;;5.43;2.57;;;13.50;99.90;;;;;;4996104;28;20960;-68
2024/02/15 08:50:06;;;;;;;4.47;2.87;;;13.60;99.90;;;;;;4966004;28;20443;-67
2024/02/15 08:52:32;;;;;;;10.17;8.67;;;13.70;99.90;;;;;;4980781;28;20420;-68
2024/02/15 08:54:59;;;;;;;6.73;4.83;;;13.90;99.90;;;;;;4967456;28;20439;-68
2024/02/15 08:57:24;;;;;;;3.73;3.43;;;13.90;99.90;;;;;;4978940;28;20192;-68
2024/02/15 08:59:51;;;;;;;4.27;2.43;;;14.00;99.90;;;;;;4978643;28;20940;-68
2024/02/15 09:02:18;;;;;;;2.53;2.30;;;13.90;99.90;;;;;;4978533;28;20180;-68
2024/02/15 09:04:43;;;;;;;2.97;2.67;;;13.80;99.90;;;;;;4979107;28;20466;-67
2024/02/15 09:07:09;;;;;;;4.00;2.63;;;14.10;99.90;;;;;;4978003;28;20941;-67
2024/02/15 09:09:36;;;;;;;5.73;3.33;;;14.40;99.90;;;;;;4997218;28;20251;-68
2024/02/15 09:12:05;;;;;;;2.80;2.60;;;15.20;99.90;;;;;;4981061;28;20186;-68
2024/02/15 09:14:33;;;;;;;3.90;3.30;;;16.20;99.90;;;;;;4998078;28;20415;-69
2024/02/15 09:17:07;;;;;;;4.33;3.57;;;17.30;99.90;;;;;;4998140;28;21002;-67
2024/02/15 09:19:32;;;;;;;4.90;3.23;;;18.20;99.90;;;;;;4993028;28;20790;-71
2024/02/15 09:21:58;;;;;;;4.43;3.50;;;18.10;99.90;;;;;;4994079;28;20439;-67
2024/02/15 09:24:25;;;;;;;6.77;3.80;;;18.80;99.90;;;;;;4977809;28;20283;-66
2024/02/15 09:26:50;;;;;;;4.63;3.20;;;18.70;99.90;;;;;;4975869;28;20219;-65
2024/02/15 09:29:16;;;;;;;3.70;2.90;;;18.50;99.90;;;;;;4976343;28;20459;-70
2024/02/15 09:31:43;;;;;;;3.07;2.63;;;18.90;99.90;;;;;;4976141;28;20195;-70
2024/02/15 09:34:08;;;;;;;4.77;3.60;;;19.50;99.90;;;;;;4976687;28;20677;-72
2024/02/15 09:36:37;;;;;;;6.30;3.30;;;19.40;99.90;;;;;;4975236;28;20487;-69
2024/02/15 09:39:03;;;;;;;5.10;3.07;;;20.30;99.90;;;;;;4976689;28;20239;-69
2024/02/15 09:41:29;;;;;;;5.10;3.30;;;20.70;98.90;;;;;;4975875;28;20423;-69
2024/02/15 09:43:55;;;;;;;6.00;2.57;;;22.00;94.90;;;;;;4976082;28;20180;-69
2024/02/15 09:46:20;;;;;;;3.00;2.80;;;21.50;91.60;;;;;;4975714;28;20208;-69
2024/02/15 09:48:50;;;;;;;3.10;2.80;;;21.30;92.00;;;;;;4975575;28;20180;-70
2024/02/15 09:51:18;;;;;;;5.70;3.93;;;21.20;92.60;;;;;;4985635;28;20177;-70
2024/02/15 09:53:45;;;;;;;3.80;2.40;;;22.30;90.10;;;;;;4975581;28;20784;-70
2024/02/15 09:56:12;;;;;;;3.03;2.67;;;22.50;85.70;;;;;;4975260;28;20444;-69
2024/02/15 09:58:38;;;;;;;3.93;2.80;;;23.70;80.60;;;;;;4975209;28;20858;-69
2024/02/15 10:01:09;;;;;;;4.47;2.60;;;24.20;74.50;;;;;;4978177;28;20435;-70
2024/02/15 10:03:37;;;;;;;2.60;2.17;;;24.70;68.60;;;;;;4975594;28;20408;-70
2024/02/15 10:06:03;;;;;;;7.30;2.73;;;23.90;67.20;;;;;;4976457;28;20875;-67
2024/02/15 10:08:31;;;;;;;5.57;2.90;;;25.40;64.30;;;;;;4989003;28;20481;-68
2024/02/15 10:11:08;;;;;;;3.20;2.63;;;25.10;61.00;;;;;;4993902;28;20187;-68
2024/02/15 10:13:34;;;;;;;6.07;2.70;;;25.20;59.70;;;;;;4994633;28;20423;-68
2024/02/15 10:16:13;;;;;;;6.70;3.00;;;26.50;56.30;;;;;;4984310;28;20450;-68
2024/02/15 10:18:39;;;;;;;50.97;15.87;;;26.00;54.10;;;;;;4975325;28;20183;-68
2024/02/15 10:21:04;;;;;;;11.30;4.53;;;25.90;54.60;;;;;;4975150;28;20954;-68
2024/02/15 10:23:30;;;;;;;3.00;1.80;;;26.50;53.30;;;;;;4976265;28;20177;-68
2024/02/15 10:25:56;;;;;;;3.27;2.30;;;27.60;50.20;;;;;;4974805;28;20635;-68
2024/02/15 10:28:27;;;;;;;2.83;1.63;;;27.60;47.50;;;;;;4974711;28;20256;-68
2024/02/15 10:30:53;;;;;;;4.23;1.80;;;27.50;47.50;;;;;;4974992;28;20950;-68
2024/02/15 10:33:25;;;;;;;1.60;1.50;;;27.10;46.20;;;;;;4977423;28;20509;-68
2024/02/15 10:36:08;;;;;;;2.00;1.90;;;26.30;46.80;;;;;;4984541;28;20535;-68
2024/02/15 10:38:33;;;;;;;5.03;2.03;;;25.50;47.50;;;;;;4984254;28;20969;-71
2024/02/15 10:41:10;;;;;;;3.10;1.60;;;26.60;47.60;;;;;;4984054;28;20514;-69
2024/02/15 10:43:39;;;;;;;1.70;1.60;;;26.50;47.40;;;;;;4983120;28;20178;-69
2024/02/15 10:46:07;;;;;;;1.93;1.83;;;26.40;46.10;;;;;;4984563;28;20519;-72
2024/02/15 10:48:33;;;;;;;3.30;1.73;;;25.80;47.70;;;;;;4983906;28;20462;-70
2024/02/15 10:51:01;;;;;;;2.83;1.90;;;26.10;46.90;;;;;;4983851;28;20428;-70
2024/02/15 10:53:30;;;;;;;2.37;2.17;;;26.30;46.20;;;;;;4983179;28;20795;-68
2024/02/15 10:56:19;;;;;;;4.60;1.77;;;26.70;46.80;;;;;;4983196;28;21015;-68
2024/02/15 10:58:55;;;;;;;3.83;1.60;;;27.80;43.80;;;;;;4981850;28;20513;-69
2024/02/15 11:01:23;;;;;;;1.73;1.63;;;26.70;43.30;;;;;;4983676;28;20422;-70
2024/02/15 11:03:59;;;;;;;4.60;1.97;;;27.80;43.60;;;;;;4984475;28;20422;-69
2024/02/15 11:06:28;;;;;;;2.93;2.00;;;27.40;42.90;;;;;;4983903;28;20442;-68
2024/02/15 11:08:55;;;;;;;2.07;1.77;;;25.70;44.40;;;;;;4983056;28;20423;-68
2024/02/15 11:11:21;;;;;;;1.93;1.77;;;26.90;44.60;;;;;;4983607;28;20426;-68
2024/02/15 11:13:50;;;;;;;2.20;1.53;;;28.40;42.90;;;;;;4982534;28;20426;-68
2024/02/15 11:16:42;;;;;;;2.17;1.80;;;29.10;41.20;;;;;;4984330;28;20467;-68
2024/02/15 11:19:10;;;;;;;2.70;2.20;;;29.40;39.40;;;;;;4984245;28;20418;-69
2024/02/15 11:21:56;;;;;;;3.30;2.10;;;29.90;39.30;;;;;;4983929;28;20427;-68
2024/02/15 11:24:29;;;;;;;2.33;1.80;;;29.30;38.70;;;;;;4992058;28;20849;-68
2024/02/15 11:27:05;;;;;;;2.33;2.17;;;29.00;39.00;;;;;;4993237;28;20487;-67
2024/02/15 11:29:51;;;;;;;4.23;2.57;;;29.50;39.00;;;;;;4993974;28;20414;-67
2024/02/15 11:32:39;;;;;;;2.40;2.03;;;30.40;38.20;;;;;;4982292;28;20459;-68
2024/02/15 11:35:13;;;;;;;2.13;2.00;;;31.20;36.40;;;;;;4993078;28;20451;-68
2024/02/15 11:38:05;;;;;;;2.43;2.23;;;31.20;35.70;;;;;;4990694;28;20526;-68
2024/02/15 11:40:43;;;;;;;2.00;1.80;;;31.60;35.00;;;;;;4992573;28;20423;-68
2024/02/15 11:43:10;;;;;;;3.47;2.30;;;30.10;34.80;;;;;;4977404;28;20427;-67
2024/02/15 11:45:43;;;;;;;3.97;2.70;;;27.50;37.60;;;;;;4974203;28;20487;-68
2024/02/15 11:48:12;;;;;;;2.20;2.00;;;27.70;39.20;;;;;;4975321;28;20435;-67
2024/02/15 11:50:39;;;;;;;3.20;2.90;;;29.10;38.00;;;;;;4974701;28;20519;-67
2024/02/15 11:53:11;;;;;;;3.23;1.93;;;27.20;38.40;;;;;;4989669;28;20467;-67
2024/02/15 11:55:38;;;;;;;2.63;1.73;;;26.90;40.80;;;;;;4975167;28;20952;-67
2024/02/15 11:58:16;;;;;;;5.10;2.50;;;27.90;39.00;;;;;;4976685;28;20477;-67
2024/02/15 12:20:00;;;;;;;3.63;1.67;;;26.80;36.90;;;;;;4986125;28;20442;-68
2024/02/15 12:22:31;;;;;;;1.73;1.63;;;27.10;37.70;;;;;;4991668;28;20425;-68
2024/02/15 12:25:11;;;;;;;2.13;1.73;;;27.20;37.20;;;;;;4990598;28;20426;-68
2024/02/15 12:27:43;;;;;;;1.30;1.13;;;26.60;38.10;;;;;;4992144;28;20453;-68
2024/02/15 12:30:20;;;;;;;3.17;1.30;;;25.40;39.20;;;;;;4992089;28;20425;-70
2024/02/15 12:32:47;;;;;;;2.07;1.60;;;25.10;40.00;;;;;;4990985;28;20436;-71
2024/02/15 12:35:18;;;;;;;1.50;1.40;;;24.30;40.20;;;;;;4992193;28;20992;-69
2024/02/15 12:37:43;;;;;;;3.13;1.50;;;23.40;41.80;;;;;;4987957;28;20473;-68
2024/02/15 12:40:21;;;;;;;2.20;1.30;;;22.60;43.60;;;;;;4977625;28;20424;-69
2024/02/15 12:42:47;;;;;;;3.17;1.67;;;22.70;44.70;;;;;;4973028;28;20251;-68
2024/02/15 12:45:20;;;;;;;1.60;1.50;;;23.40;43.50;;;;;;4972924;28;20455;-68
2024/02/15 12:47:53;;;;;;;2.27;1.70;;;23.70;44.20;;;;;;4984832;28;20238;-70
2024/02/15 12:50:21;;;;;;;2.80;1.67;;;23.30;45.20;;;;;;4991391;28;20513;-68
2024/02/15 12:52:48;;;;;;;2.03;1.50;;;23.30;45.20;;;;;;4992383;28;20502;-69
2024/02/15 12:55:21;;;;;;;1.40;1.30;;;23.80;44.50;;;;;;4990767;28;20470;-69
2024/02/15 12:57:51;;;;;;;3.50;1.30;;;23.80;44.50;;;;;;4991693;28;20450;-68
2024/02/15 13:00:31;;;;;;;1.83;1.60;;;23.90;44.10;;;;;;4994383;28;20442;-71
2024/02/15 13:02:58;;;;;;;2.87;1.70;;;23.60;44.60;;;;;;4992453;28;20430;-68
2024/02/15 13:05:26;;;;;;;4.40;1.53;;;22.70;45.60;;;;;;4985683;28;20427;-69
2024/02/15 13:07:57;;;;;;;2.23;1.50;;;22.20;47.60;;;;;;4981530;28;20455;-68
2024/02/15 13:10:24;;;;;;;2.13;1.70;;;22.10;47.50;;;;;;4981988;28;20513;-68
2024/02/15 13:12:55;;;;;;;4.97;1.67;;;21.50;48.90;;;;;;4995696;28;20931;-68
2024/02/15 13:15:26;;;;;;;3.77;1.60;;;20.80;50.30;;;;;;4995848;28;20454;-70
2024/02/15 13:17:51;;;;;;;2.30;1.47;;;20.30;52.60;;;;;;4987028;28;20447;-68
2024/02/15 13:20:20;;;;;;;1.63;1.43;;;20.00;54.30;;;;;;4976150;28;20931;-68